ADDS METAR Data INFO
IDs: Format: Raw Decoded Include TAF

Data at: 1331 UTC 19 Jul 2018

KMTN 191245Z 00000KT 10SM FEW070 24/14 A3012
KMTN 191145Z 34005KT 10SM FEW070 23/14 A3010
KMTN 191045Z 33004KT 10SM FEW075 20/15 A3008
KMTN 190945Z 33003KT 10SM BKN075 18/16 A3008
KMTN 190930Z AUTO 30003KT 10SM OVC075 18/16 A3007 RMK AO2
KMTN 190915Z AUTO 28003KT 10SM BKN075 18/16 A3007 RMK AO2
KMTN 190857Z AUTO 00000KT 10SM BKN075 18/16 A3007 RMK AO2
KMTN 190836Z AUTO 31003KT 10SM OVC075 19/16 A3006 RMK AO2
KMTN 190815Z AUTO 00000KT 10SM SCT075 18/16 A3006 RMK AO2
KMTN 190757Z AUTO 00000KT 10SM SCT075 20/16 A3006 RMK AO2
KMTN 190736Z AUTO 00000KT 10SM SCT075 20/16 A3005 RMK AO2
KMTN 190715Z AUTO 00000KT 10SM SCT075 20/17 A3005 RMK AO2
KMTN 190657Z AUTO 00000KT 10SM CLR 20/17 A3005 RMK AO2
KMTN 190636Z AUTO 00000KT 10SM CLR 20/17 A3004 RMK AO2
KMTN 190615Z AUTO 00000KT 10SM CLR 20/17 A3004 RMK AO2
KMTN 190557Z AUTO 00000KT 10SM CLR 20/17 A3003 RMK AO2
KMTN 190536Z AUTO 00000KT 10SM CLR 20/17 A3003 RMK AO2
KMTN 190515Z AUTO 00000KT 10SM CLR 20/18 A3002 RMK AO2
KMTN 190457Z AUTO 00000KT 10SM CLR 21/17 A3002 RMK AO2
KMTN 190436Z AUTO 00000KT 10SM CLR 21/17 A3001 RMK AO2
KMTN 190415Z AUTO 00000KT 10SM CLR 21/17 A3001 RMK AO2
KMTN 190357Z AUTO 00000KT 10SM CLR 21/17 A3000 RMK AO2
KMTN 190336Z AUTO 00000KT 10SM CLR 21/17 A3000 RMK AO2
KMTN 190315Z AUTO 00000KT 10SM CLR 22/18 A2999 RMK AO2
KMTN 190257Z AUTO 00000KT 10SM CLR 22/17 A2999 RMK AO2
KMTN 190236Z AUTO 00000KT 10SM CLR 22/17 A2999 RMK AO2
KMTN 190215Z AUTO 00000KT 7SM CLR 22/17 A2999 RMK AO2
KMTN 190145Z 00000KT 10SM SKC 23/18 A2998
KMTN 190045Z 00000KT SKC 25/16 A2996
KMTN 182345Z 00000KT 10SM SKC 28/16 A2995
KMTN 182245Z 32007KT 10SM SCT150 29/16 A2994
KMTN 182145Z 00000KT 10SM SCT150 29/16 A2993
KMTN 182045Z 32006KT 10SM SCT070 BKN090 29/17 A2994
KMTN 181945Z 34004KT 10SM SCT090 31/15 A2994
KMTN 181845Z 01003KT 10SM SCT070 SCT075 30/14 A2995
KMTN 181745Z 35007KT 10SM SCT060 29/15 A2995
KMTN 181645Z 31009G14KT 10SM SCT060 29/16 A2995
KMTN 181545Z 31009KT 10SM FEW060 29/15 A2995
KMTN 181445Z 31005KT 10SM FEW050 27/21 A2996
KMTN 181345Z 31006KT 10SM FEW055 26/18 A2997
KMTN 181245Z 32007G14KT 10SM FEW055 25/18 A2992
KMTN 181145Z 31007KT 10SM SCT055 23/18 A2994
KMTN 181045Z 32004KT 10SM SCT065 BKN200 21/18 A2992
KMTN 180945Z 32005KT 10SM SCT065 BKN200 22/18 A2990
KMTN 180930Z AUTO 00000KT 10SM SCT065 21/18 A2990 RMK AO2
KMTN 180915Z AUTO 31005KT 10SM CLR 22/18 A2990 RMK AO2
KMTN 180857Z AUTO 31006KT 10SM SCT065 22/18 A2990 RMK AO2
KMTN 180836Z AUTO 31007KT 10SM SCT065 22/19 A2989 RMK AO2
KMTN 180815Z AUTO 31008KT 10SM SCT065 22/19 A2989 RMK AO2
KMTN 180757Z AUTO 31007KT 10SM SCT065 22/20 A2989 RMK AO2
KMTN 180736Z AUTO 30006KT 10SM CLR 22/21 A2988 RMK AO2
KMTN 180715Z AUTO 30005KT 10SM CLR 22/21 A2987 RMK AO2
KMTN 180657Z AUTO 30007KT 10SM CLR 22/21 A2987 RMK AO2
KMTN 180636Z AUTO 30006KT 10SM CLR 23/22 A2987 RMK AO2
KMTN 180615Z AUTO 30008KT 10SM CLR 23/22 A2987 RMK AO2
KMTN 180557Z AUTO 30006KT 10SM CLR 23/22 A2987 RMK AO2
KMTN 180536Z AUTO 29006KT 10SM CLR 23/23 A2986 RMK AO2
KMTN 180515Z AUTO 29006KT 10SM CLR 23/23 A2986 RMK AO2
KMTN 180457Z AUTO 29004KT 10SM CLR 23/23 A2986 RMK AO2
KMTN 180436Z AUTO 31003KT 10SM CLR 24/24 A2986 RMK AO2
KMTN 180415Z AUTO 00000KT 10SM SCT013 24/24 A2986 RMK AO2
KMTN 180357Z AUTO 00000KT 7SM SCT015 SCT100 24/24 A2986 RMK AO2
KMTN 180336Z AUTO 00000KT 10SM SCT100 24/24 A2985 RMK AO2
KMTN 180315Z AUTO 00000KT 10SM -RA SCT110 25/25 A2984 RMK AO2
KMTN 180257Z AUTO 00000KT 10SM CLR 25/25 A2984 RMK AO2
KMTN 180236Z AUTO 00000KT 10SM SCT030 25/25 A2986 RMK AO2
KMTN 180215Z AUTO 00000KT 10SM BKN032 25/25 A2987 RMK AO2
KMTN 180145Z 00000KT 7SM SCT030 BKN070 25/25 A2987